Tiempo atmosférico en la estación meteorológica de Candelaria, Santa Cruz de Tenerife (463 m.)



Fecha
DESCASC
Temp. máxima en grados centígrados (hora)
DESCASC
Temp. mínima en grados centígrados (hora)
DESCASC
Temp. media en grados centígrados
DESCASC
Racha de viento máxima en m/sg (hora)
DESCASC
Velocidad máxima media en intervalos de 10 minutos(hora)
DESCASC
Precipitaciones diarias en mm
DESCASC
Precipitaciones de 00:00 a 06:00 en mm
DESCASC
Precipitaciones de 06:00 a 12:00 en mm
DESCASC
Precipitaciones de 12:00 a 18:00 en mm
DESCASC
Precipitaciones de 18:00 a 24:00 en mm
DESCASC
22-04-2019 20.3 (16:30) 11.4 (07:40) 15.8 7.5 (16:00) 4.17 (16:10) 0 0 0 0 0
21-04-2019 21.6 (16:00) 12.2 (06:20) 16.9 8.61 (00:10) 4.72 (01:50) 0 0 0 0 0
20-04-2019 21.1 (16:50) 10.9 (06:00) 16 14.17 (15:50) 7.78 (15:50) 0 0 0 0 0
19-04-2019 22.2 (14:10) 12.2 (05:30) 17.2 11.67 (01:00) 6.67 (06:40) 0 0 0 0 0
18-04-2019 21 (13:10) 13.7 (00:00) 17.3 14.72 (00:10) 8.61 (06:00) 0 0 0 0 0
17-04-2019 18 (10:30) 12.2 (00:00) 15.1 10.56 (23:59) 6.67 (23:59) 0 0 0 0 0
16-04-2019 16.5 (17:00) 11.9 (00:00) 14.2 5 (05:10) 3.89 (06:30) 0.4 0 0 0.4 0
15-04-2019 19.4 (15:00) 11.8 (00:00) 15.6 7.78 (15:50) 5 (15:50) 0 0 0 0 0
14-04-2019 19.6 (09:50) 10 (00:00) 14.8 5.56 (16:00) 3.06 (13:30) 0 0 0 0 0
13-04-2019 19.1 (12:20) 11.8 (00:00) 15.5 9.44 (15:30) 5.83 (13:00) 0 0 0 0 0
12-04-2019 20.8 (17:40) 12.1 (00:00) 16.4 14.72 (04:50) 7.5 (04:50) 0 0 0 0 0
11-04-2019 20.6 (15:30) 11.4 (00:00) 16 18.33 (21:20) 8.89 (21:10) 0 0 0 0 0
10-04-2019 20.1 (16:10) 11.1 (00:00) 15.6 12.22 (18:30) 6.94 (16:30) 0 0 0 0 0
09-04-2019 18.9 (10:50) 11 (00:00) 14.9 10 (17:30) 6.67 (11:40) 0 0 0 0 0
08-04-2019 17.5 (10:50) 11.2 (00:00) 14.3 6.39 (22:00) 4.44 (04:10) 0 0 0 0 0
07-04-2019 18.3 (12:10) 10.4 (00:00) 14.3 6.94 (12:40) 4.17 (03:00) 0 0 0 0 0
06-04-2019 18.7 (12:20) 12.1 (00:00) 15.4 13.61 (06:30) 7.78 (06:20) 0 0 0 0 0
05-04-2019 18.7 (11:20) 12.5 (00:00) 15.6 12.5 (23:30) 6.39 (02:10) 0 0 0 0 0
04-04-2019 18.6 (16:40) 11.2 (00:00) 14.9 13.89 (14:30) 8.61 (14:20) 0 0 0 0 0
03-04-2019 17.6 (11:30) 11.7 (04:00) 14.7 15.56 (16:50) 9.17 (16:50) 2.4 0 0 2.2 0.2
02-04-2019 15.3 (13:20) 12.6 (00:00) 14 5.56 (14:00) 3.89 (11:50) 11.4 3.2 7.8 0.4 0
01-04-2019 17.1 (11:30) 11.2 (00:00) 14.2 5.28 (11:30) 3.89 (05:20) 7.6 0 0 5.4 2.2
31-03-2019 18.3 (13:00) 9.5 (00:00) 13.9 6.39 (12:00) 4.17 (12:10) 0 0 0 0 0
30-03-2019 17.1 (11:00) 9.9 (00:00) 13.5 7.22 (07:10) 5.83 (07:10) 1 0 1 0 0
29-03-2019 15.7 (10:20) 10.4 (00:00) 13 5.56 (22:30) 4.72 (22:00) 6.2 0 1.2 5 0
28-03-2019 17.5 (10:40) 10.4 (00:00) 13.9 6.39 (11:20) 4.17 (11:30) 13.4 0 0 0 13.4
27-03-2019 17.4 (09:40) 11.3 (00:00) 14.3 6.67 (12:00) 3.89 (07:10) 0 0 0 0 0
26-03-2019 16.8 (11:00) 9.6 (00:00) 13.2 6.11 (10:40) 3.61 (01:10) 0 0 0 0 0
25-03-2019 15.4 (15:10) 10.5 (00:00) 12.9 4.17 (15:50) 3.06 (15:20) 4.2 0 2.8 1 0.4

Gráficas

Temp. máximas Temp. mínimas Temp. medias Precipitaciones Rachas de viento máximas Velocidades máximas media en intervalos de 10 minutos

Datos horarios

Fecha y hora oficial Temperatura (ºC) Velocidad del viento (km/h) Dirección del viento Racha (km/h) Dirección de racha Precipitación (mm) Presión (hPa) Tendencia (hPa) Humedad (%)
2019-04-23 23:00:00 15.4 3 Noroeste 28 Nordeste 0 -- -- 75
2019-04-23 22:00:00 15.1 5 Norte 25 Norte 0 -- -- 71
2019-04-23 21:00:00 15.3 0 Calma 6 Oeste 0 -- -- 87
2019-04-23 20:00:00 15.9 2 Sur 12 Sur 0 -- -- 82
2019-04-23 19:00:00 16.7 6 Sur 16 Sur 0 -- -- 81
2019-04-23 18:00:00 17.2 7 Sudoeste 17 Sur 0 -- -- 74
2019-04-23 17:00:00 16.7 7 Sudoeste 17 Sur 0 -- -- 83
2019-04-23 16:00:00 16.5 11 Sur 21 Sur 0 -- -- 84
2019-04-23 15:00:00 17.1 13 Sur 31 Sur 0 -- -- 79
2019-04-23 14:00:00 20 15 Sur 26 Sudoeste 0 -- -- 67
2019-04-23 13:00:00 19.5 12 Sudoeste 27 Sudoeste 0 -- -- 66
2019-04-23 12:00:00 18.3 9 Sudoeste 21 Sur 0 -- -- 71
2019-04-23 11:00:00 18.7 7 Sudoeste 21 Sur 0 -- -- 67
2019-04-23 10:00:00 18.1 9 Sur 17 Sudeste 0 -- -- 67
2019-04-23 09:00:00 16.2 6 Sudeste 10 Sudeste 0 -- -- 74
2019-04-23 08:00:00 13.3 6 Nordeste 13 Nordeste 0 -- -- 89
2019-04-23 07:00:00 12.6 8 Nordeste 10 Norte 0 -- -- 94
2019-04-23 06:00:00 12.4 4 Nordeste 8 Este 0 -- -- 91
2019-04-23 05:00:00 12.7 5 Nordeste 13 Norte 0 -- -- 88
2019-04-23 04:00:00 13.5 10 Nordeste 13 Norte 0 -- -- 91
2019-04-23 03:00:00 13.6 2 Este 10 Sur 0 -- -- 92
2019-04-23 02:00:00 14.2 8 Sudeste 13 Sudeste 0 -- -- 91
2019-04-23 01:00:00 13.8 6 Sudeste 9 Sudeste 0 -- -- 91
2019-04-23 00:00:00 14.1 5 Norte 10 Norte 0 -- -- 88
2019-04-22 23:00:00 14.8 0 Calma 8 Noroeste 0 -- -- 88
2019-04-22 22:00:00 14.8 2 Oeste 10 Noroeste 0 -- -- 88
2019-04-22 21:00:00 15.5 3 Oeste 10 Sudoeste 0 -- -- 84
2019-04-22 20:00:00 16.3 3 Sudoeste 13 Sur 0 -- -- 82
2019-04-22 19:00:00 16.8 9 Sur 18 Sur 0 -- -- 79
2019-04-22 18:00:00 18.2 11 Sudeste 21 Sudeste 0 -- -- 75
2019-04-22 17:00:00 18.8 12 Sur 23 Sur 0 -- -- 74
2019-04-22 16:00:00 19.3 10 Sur 27 Sudeste 0 -- -- 71
2019-04-22 15:00:00 20.2 12 Sur 23 Sur 0 -- -- 68
2019-04-22 14:00:00 19.8 13 Sur 21 Sur 0 -- -- 68
2019-04-22 13:00:00 19.3 11 Sudoeste 19 Sur 0 -- -- 68
2019-04-22 12:00:00 18.9 8 Sudoeste 17 Sur 0 -- -- 69
2019-04-22 11:00:00 18.5 9 Sur 14 Sur 0 -- -- 70
2019-04-22 10:00:00 17.4 8 Sur 13 Sur 0 -- -- 75
2019-04-22 09:00:00 15.7 4 Sur 6 Sur 0 -- -- 80
2019-04-22 08:00:00 12.2 4 Este 8 Nordeste 0 -- -- 92
2019-04-22 07:00:00 11.9 4 Nordeste 9 Norte 0 -- -- 90
2019-04-22 06:00:00 11.9 5 Norte 8 Norte 0 -- -- 92
2019-04-22 05:00:00 12.7 5 Este 10 Norte 0 -- -- 90
2019-04-22 04:00:00 12.4 6 Nordeste 10 Nordeste 0 -- -- 89
2019-04-22 03:00:00 12.4 6 Norte 9 Norte 0 -- -- 90
2019-04-22 02:00:00 13 6 Norte 12 Norte 0 -- -- 89
2019-04-22 01:00:00 13.3 7 Nordeste 11 Nordeste 0 -- -- 88
2019-04-22 00:00:00 13.6 8 Nordeste 10 Nordeste 0 -- -- 86
2019-04-21 23:00:00 14.2 4 Nordeste 7 Nordeste 0 -- -- 84
2019-04-21 22:00:00 15 4 Este 6 Este 0 -- -- 80
2019-04-21 21:00:00 16 2 Oeste 9 Oeste 0 -- -- 79
2019-04-21 20:00:00 16.9 8 Oeste 18 Oeste 0 -- -- 76
2019-04-21 19:00:00 18.6 10 Sudoeste 22 Sudeste 0 -- -- 67
2019-04-21 18:00:00 20.3 10 Sur 24 Sudeste 0 -- -- 58
2019-04-21 17:00:00 20.7 11 Sur 24 Sur 0 -- -- 56
2019-04-21 16:00:00 21.6 15 Sudeste 26 Sur 0 -- -- 53
2019-04-21 15:00:00 20.6 11 Sudoeste 27 Sur 0 -- -- 57
2019-04-21 14:00:00 20.1 13 Sur 27 Sudoeste 0 -- -- 58
2019-04-21 13:00:00 19.3 11 Sur 25 Sudoeste 0 -- -- 58
2019-04-21 12:00:00 19.4 9 Sur 22 Sudoeste 0 -- -- 58
2019-04-21 11:00:00 18.2 10 Sudoeste 22 Sudoeste 0 -- -- 60
2019-04-21 10:00:00 17.8 8 Sudoeste 13 Oeste 0 -- -- 58
2019-04-21 09:00:00 15.4 2 Oeste 12 Nordeste 0 -- -- 69
2019-04-21 08:00:00 12.7 5 Nordeste 13 Este 0 -- -- 78
2019-04-21 07:00:00 12.4 7 Este 12 Nordeste 0 -- -- 76
2019-04-21 06:00:00 12.8 7 Norte 19 Noroeste 0 -- -- 73
2019-04-21 05:00:00 13.6 11 Noroeste 20 Noroeste 0 -- -- 70
2019-04-21 04:00:00 13.7 10 Norte 23 Noroeste 0 -- -- 68
2019-04-21 03:00:00 14.1 8 Norte 24 Norte 0 -- -- 71
2019-04-21 02:00:00 14.7 12 Noroeste 31 Norte 0 -- -- 65
2019-04-21 01:00:00 15.1 6 Noroeste 31 Noroeste 0 -- -- 70
2019-04-21 00:00:00 15.3 10 Norte 36 Norte 0 -- -- 67
2019-04-20 23:00:00 14.9 8 Este 22 Norte 0 -- -- 68
2019-04-20 22:00:00 15.3 7 Noroeste 23 Norte 0 -- -- 60
2019-04-20 21:00:00 15.6 9 Noroeste 18 Oeste 0 -- -- 68
2019-04-20 20:00:00 16.8 8 Noroeste 19 Oeste 0 -- -- 61
2019-04-20 19:00:00 17.8 12 Oeste 26 Oeste 0 -- -- 58
2019-04-20 18:00:00 19.2 9 Noroeste 23 Oeste 0 -- -- 53
2019-04-20 17:00:00 21.1 15 Noroeste 36 Nordeste 0 -- -- 47
2019-04-20 16:00:00 19.8 15 Norte 51 Nordeste 0 -- -- 49
2019-04-20 15:00:00 17.9 21 Norte 42 Nordeste 0 -- -- 55
2019-04-20 14:00:00 18.8 6 Sudoeste 28 Noroeste 0 -- -- 54
2019-04-20 13:00:00 19.2 6 Oeste 24 Oeste 0 -- -- 51
2019-04-20 12:00:00 18.1 12 Sudoeste 21 Sudoeste 0 -- -- 55
2019-04-20 11:00:00 17.3 9 Sudoeste 19 Sudoeste 0 -- -- 59
2019-04-20 10:00:00 16 5 Sur 13 Sur 0 -- -- 67
2019-04-20 09:00:00 14.5 3 Oeste 9 Nordeste 0 -- -- 75
2019-04-20 08:00:00 11.1 6 Nordeste 14 Nordeste 0 -- -- 83
2019-04-20 07:00:00 11.5 6 Nordeste 13 Nordeste 0 -- -- 81
2019-04-20 06:00:00 10.9 9 Nordeste 13 Nordeste 0 -- -- 78
2019-04-20 05:00:00 11.8 6 Norte 16 Nordeste 0 -- -- 73
2019-04-20 04:00:00 12.4 5 Este 12 Nordeste 0 -- -- 76
2019-04-20 03:00:00 12.4 6 Este 12 Nordeste 0 -- -- 72
2019-04-20 02:00:00 12.5 6 Nordeste 19 Norte 0 -- -- 66
2019-04-20 01:00:00 14.6 10 Nordeste 33 Nordeste 0 -- -- 50
2019-04-20 00:00:00 14.4 13 Nordeste 32 Noroeste 0 -- -- 64
2019-04-19 23:00:00 13.6 5 Nordeste 14 Sudeste 0 -- -- 74
2019-04-19 22:00:00 14.4 8 Sudeste 14 Sudeste 0 -- -- 71
2019-04-19 21:00:00 14.7 5 Sudeste 12 Sudoeste 0 -- -- 70
2019-04-19 20:00:00 16 10 Oeste 25 Sudoeste 0 -- -- 65
2019-04-19 19:00:00 18.4 12 Sudeste 22 Sudeste 0 -- -- 55
2019-04-19 18:00:00 19.3 13 Sur 28 Sudoeste 0 -- -- 52
2019-04-19 17:00:00 20.4 18 Oeste 31 Oeste 0 -- -- 48
2019-04-19 16:00:00 21.2 18 Oeste 30 Oeste 0 -- -- 45
2019-04-19 15:00:00 22 18 Oeste 31 Oeste 0 -- -- 42
2019-04-19 14:00:00 21.9 16 Oeste 31 Noroeste 0 -- -- 37
2019-04-19 13:00:00 21.1 21 Noroeste 34 Noroeste 0 -- -- 39
2019-04-19 12:00:00 20.2 15 Noroeste 24 Noroeste 0 -- -- 44
2019-04-19 11:00:00 18.7 15 Noroeste 27 Noroeste 0 -- -- 51
2019-04-19 10:00:00 16.9 13 Oeste 23 Oeste 0 -- -- 59
2019-04-19 09:00:00 14.9 12 Oeste 24 Oeste 0 -- -- 69
2019-04-19 08:00:00 12.7 7 Noroeste 23 Noroeste 0 -- -- 79
2019-04-19 07:00:00 12.9 14 Noroeste 39 Noroeste 0 -- -- 78
2019-04-19 06:00:00 12.6 17 Noroeste 24 Noroeste 0 -- -- 78
2019-04-19 05:00:00 12.5 5 Norte 18 Norte 0 -- -- 79
2019-04-19 04:00:00 13.2 9 Noroeste 26 Noroeste 0 -- -- 77
2019-04-19 03:00:00 13.6 19 Noroeste 34 Noroeste 0 -- -- 75
2019-04-19 02:00:00 13.9 14 Noroeste 37 Nordeste 0 -- -- 74
2019-04-19 01:00:00 13.7 15 Noroeste 42 Noroeste 0 -- -- 72
2019-04-19 00:00:00 13.7 8 Noroeste 18 Norte 0 -- -- 74
2019-04-18 23:00:00 13.9 11 Norte 18 Noroeste 0 -- -- 73
2019-04-18 22:00:00 14.5 13 Norte 21 Norte 0 -- -- 69
2019-04-18 21:00:00 15.2 12 Noroeste 22 Noroeste 0 -- -- 67
2019-04-18 20:00:00 16.3 11 Noroeste 41 Nordeste 0 -- -- 64
2019-04-18 19:00:00 17.9 10 Noroeste 25 Oeste 0 -- -- 59
2019-04-18 18:00:00 19.7 14 Oeste 29 Oeste 0 -- -- 53
2019-04-18 17:00:00 20.7 15 Oeste 27 Oeste 0 -- -- 49
2019-04-18 16:00:00 20.9 15 Oeste 31 Oeste 0 -- -- 49
2019-04-18 15:00:00 20.7 15 Oeste 30 Sudoeste 0 -- -- 48
2019-04-18 14:00:00 20.9 11 Sudoeste 36 Oeste 0 -- -- 47
2019-04-18 13:00:00 20.9 10 Noroeste 22 Norte 0 -- -- 50
2019-04-18 12:00:00 19.7 12 Oeste 29 Sur 0 -- -- 53
2019-04-18 11:00:00 18.7 12 Oeste 22 Oeste 0 -- -- 58
2019-04-18 10:00:00 16.7 12 Noroeste 48 Norte 0 -- -- 65
2019-04-18 09:00:00 16 19 Norte 50 Norte 0 -- -- 59
2019-04-18 08:00:00 15.1 19 Norte 51 Norte 0 -- -- 60
2019-04-18 07:00:00 15.2 27 Norte 52 Nordeste 0 -- -- 59
2019-04-18 06:00:00 14.9 31 Nordeste 49 Nordeste 0 -- -- 59
2019-04-18 05:00:00 14.8 10 Noroeste 47 Nordeste 0 -- -- 73
2019-04-18 04:00:00 14.9 14 Nordeste 31 Norte 0 -- -- 60
2019-04-18 03:00:00 15.2 23 Nordeste 42 Norte 0 -- -- 59
2019-04-18 02:00:00 15.1 12 Norte 52 Nordeste 0 -- -- 60
2019-04-18 01:00:00 15.2 28 Nordeste 53 Norte 0 -- -- 59
2019-04-18 00:00:00 15.4 24 Nordeste 38 Nordeste 0 -- -- 62
2019-04-17 23:00:00 14.9 3 Sur 23 Nordeste 0 -- -- 83
2019-04-17 22:00:00 14.6 4 Noroeste 15 Norte 0 -- -- 83
2019-04-17 21:00:00 15.1 0 Calma 14 Sudeste 0 -- -- 88
2019-04-17 20:00:00 16.1 5 Sudeste 13 Sur 0 -- -- 80
2019-04-17 19:00:00 16.4 4 Sudoeste 12 Norte 0 -- -- 80
2019-04-17 18:00:00 15.9 6 Noroeste 9 Sudeste 0 -- -- 85
2019-04-17 17:00:00 16.3 5 Sur 12 Sur 0 -- -- 82
2019-04-17 16:00:00 16 4 Sudeste 13 Sur 0 -- -- 83
2019-04-17 15:00:00 16.2 9 Sur 14 Sur 0 -- -- 81
2019-04-17 14:00:00 15.9 2 Sur 11 Sudeste 0 -- -- 83
2019-04-17 13:00:00 16.5 4 Sudeste 10 Sur 0 -- -- 76
2019-04-17 12:00:00 16.3 6 Sudeste 17 Sudeste 0 -- -- 76
2019-04-17 11:00:00 17.5 9 Sudoeste 18 Sudoeste 0 -- -- 70
2019-04-17 10:00:00 17 5 Sudoeste 13 Sudoeste 0 -- -- 70
2019-04-17 09:00:00 16.4 5 Sur 11 Nordeste 0 -- -- 73
2019-04-17 08:00:00 12.5 8 Nordeste 13 Nordeste 0 -- -- 83
2019-04-17 07:00:00 12.5 12 Nordeste 17 Nordeste 0 -- -- 84
2019-04-17 06:00:00 13 9 Nordeste 13 Nordeste 0 -- -- 87
2019-04-17 05:00:00 13.1 7 Nordeste 17 Nordeste 0 -- -- 84
2019-04-17 04:00:00 12.9 12 Nordeste 16 Nordeste 0 -- -- 83
2019-04-17 03:00:00 13.4 7 Nordeste 23 Nordeste 0 -- -- 83
2019-04-17 02:00:00 13.6 16 Nordeste 23 Nordeste 0 -- -- 83
2019-04-17 01:00:00 14.3 4 Nordeste 6 Noroeste 0 -- -- 93
2019-04-17 00:00:00 14.9 7 Noroeste 10 Noroeste 0 -- -- 92
2019-04-16 23:00:00 15.3 5 Oeste 6 Oeste 0 -- -- 93
2019-04-16 22:00:00 15.4 2 Sur 5 Sudeste 0 -- -- 91
2019-04-16 21:00:00 15.5 3 Sur 8 Sur 0 -- -- 89
2019-04-16 20:00:00 15.8 3 Sur 10 Sur 0 -- -- 87
2019-04-16 19:00:00 16.3 5 Sudeste 9 Sur 0 -- -- 85
2019-04-16 18:00:00 16.4 5 Sur 11 Sur 0 -- -- 87
2019-04-16 17:00:00 16.5 4 Sudoeste 10 Sur 0 -- -- 86
2019-04-16 16:00:00 16.1 4 Sudoeste 9 Sudoeste 0 -- -- 88
2019-04-16 15:00:00 15.3 2 Oeste 7 Sur 0.4 -- -- 94
2019-04-16 14:00:00 15 4 Sur 9 Sur 0 -- -- 94
2019-04-16 13:00:00 15.4 5 Sur 15 Sudeste 0 -- -- 90
2019-04-16 12:00:00 16.2 9 Sur 15 Sur 0 -- -- 87
2019-04-16 11:00:00 15.7 4 Sur 12 Sur 0 -- -- 90
2019-04-16 10:00:00 15.2 4 Sur 7 Noroeste 0 -- -- 89
2019-04-16 09:00:00 14.2 8 Norte 11 Norte 0 -- -- 85
2019-04-16 08:00:00 12.3 4 Norte 14 Norte 0 -- -- 82
2019-04-16 07:00:00 12.2 12 Norte 18 Nordeste 0 -- -- 81
2019-04-16 06:00:00 12.6 9 Nordeste 18 Nordeste 0 -- -- 81
2019-04-16 05:00:00 12.1 10 Nordeste 13 Nordeste 0 -- -- 84
2019-04-16 04:00:00 12.5 7 Norte 13 Norte 0 -- -- 81
2019-04-16 03:00:00 13.2 3 Este 15 Nordeste 0 -- -- 89
2019-04-16 02:00:00 13.2 7 Nordeste 13 Nordeste 0 -- -- 81
2019-04-16 01:00:00 14.2 7 Norte 13 Norte 0 -- -- 81
2019-04-16 00:00:00 14.3 10 Norte 13 Norte 0 -- -- 85
2019-04-15 23:00:00 14.3 4 Norte 7 Norte 0 -- -- 85
2019-04-15 22:00:00 15.4 3 Sudeste 5 Sudeste 0 -- -- 90
2019-04-15 21:00:00 15.5 0 Calma 12 Sudeste 0 -- -- 90
2019-04-15 20:00:00 15.9 11 Sudeste 16 Sudeste 0 -- -- 90
2019-04-15 19:00:00 16.4 7 Sur 15 Sur 0 -- -- 86
2019-04-15 18:00:00 17.2 11 Sur 21 Sur 0 -- -- 79
2019-04-15 17:00:00 17.6 12 Sur 22 Sur 0 -- -- 78
2019-04-15 16:00:00 19.3 15 Sur 28 Sur 0 -- -- 71
2019-04-15 15:00:00 19.4 15 Sur 23 Sur 0 -- -- 67
2019-04-15 14:00:00 17.4 13 Sur 21 Sur 0 -- -- 75
2019-04-15 13:00:00 17.1 13 Sudeste 22 Sur 0 -- -- 74
2019-04-15 12:00:00 17.2 14 Sur 23 Sur 0 -- -- 75
2019-04-15 11:00:00 18.3 11 Sur 20 Sur 0 -- -- 67
2019-04-15 10:00:00 17.6 6 Sudoeste 13 Sudoeste 0 -- -- 72
2019-04-15 09:00:00 16.1 2 Este 8 Sudeste 0 -- -- 76
2019-04-15 08:00:00 12.1 7 Nordeste 12 Norte 0 -- -- 82
2019-04-15 07:00:00 12.3 6 Nordeste 10 Nordeste 0 -- -- 89
2019-04-15 06:00:00 12 9 Nordeste 14 Nordeste 0 -- -- 85
2019-04-15 05:00:00 11.9 12 Nordeste 13 Nordeste 0 -- -- 85
2019-04-15 04:00:00 12.2 5 Nordeste 12 Nordeste 0 -- -- 86
2019-04-15 03:00:00 12.6 4 Este 9 Nordeste 0 -- -- 87
2019-04-15 02:00:00 13.6 3 Este 6 Nordeste 0 -- -- 91
2019-04-15 01:00:00 13.3 4 Norte 7 Nordeste 0 -- -- 87
2019-04-15 00:00:00 13.7 5 Nordeste 8 Nordeste 0 -- -- 86
2019-04-14 23:00:00 14.3 3 Este 8 Este 0 -- -- 81
2019-04-14 22:00:00 14.6 2 Nordeste 6 Nordeste 0 -- -- 83
2019-04-14 21:00:00 15.3 0 Calma 6 Sur 0 -- -- 87
2019-04-14 20:00:00 16.2 2 Oeste 8 Sudoeste 0 -- -- 84
2019-04-14 19:00:00 16.9 4 Sur 16 Sur 0 -- -- 81
2019-04-14 18:00:00 17.9 9 Sur 16 Sur 0 -- -- 77
2019-04-14 17:00:00 18.8 9 Sur 18 Sur 0 -- -- 73
2019-04-14 16:00:00 19.1 9 Sur 20 Sur 0 -- -- 71
2019-04-14 15:00:00 19 8 Sudoeste 17 Sudoeste 0 -- -- 71
2019-04-14 14:00:00 18.9 8 Sur 19 Sur 0 -- -- 70
2019-04-14 13:00:00 19.2 10 Sur 18 Sur 0 -- -- 68
2019-04-14 12:00:00 18.9 8 Sur 17 Sur 0 -- -- 68
2019-04-14 11:00:00 19.1 6 Sur 12 Sudoeste 0 -- -- 62
2019-04-14 10:00:00 19.4 5 Sur 11 Sur 0 -- -- 59
2019-04-14 09:00:00 15.8 2 Sur 8 Norte 0 -- -- 69
2019-04-14 08:00:00 10.5 3 Noroeste 6 Nordeste 0 -- -- 70
2019-04-14 07:00:00 10.4 5 Nordeste 9 Nordeste 0 -- -- 70
2019-04-14 06:00:00 10.8 0 Calma 9 Nordeste 0 -- -- 71
2019-04-14 05:00:00 11.9 10 Norte 13 Norte 0 -- -- 64
2019-04-14 04:00:00 11.9 5 Norte 14 Norte 0 -- -- 46
2019-04-14 03:00:00 12.4 3 Noroeste 12 Nordeste 0 -- -- 60
2019-04-14 02:00:00 12.8 5 Este 12 Norte 0 -- -- 46
2019-04-14 01:00:00 12.2 7 Norte 13 Norte 0 -- -- 49
2019-04-14 00:00:00 13.2 11 Norte 14 Noroeste 0 -- -- 66
2019-04-13 23:00:00 13.8 8 Norte 17 Norte 0 -- -- 82
2019-04-13 22:00:00 14.3 10 Noroeste 16 Noroeste 0 -- -- 86
2019-04-13 21:00:00 14.7 6 Noroeste 8 Noroeste 0 -- -- 86
2019-04-13 20:00:00 15.3 3 Sur 15 Sur 0 -- -- 82
2019-04-13 19:00:00 16.4 8 Sur 18 Sur 0 -- -- 79
2019-04-13 18:00:00 17.2 12 Sur 23 Sur 0 -- -- 75
2019-04-13 17:00:00 17.8 15 Sur 30 Sur 0 -- -- 67
2019-04-13 16:00:00 18.3 19 Sudeste 34 Sur 0 -- -- 71
2019-04-13 15:00:00 18.7 19 Sudeste 30 Sur 0 -- -- 60
2019-04-13 14:00:00 18.6 18 Sur 32 Sur 0 -- -- 64
2019-04-13 13:00:00 18.8 21 Sur 30 Sudeste 0 -- -- 63
2019-04-13 12:00:00 18.2 15 Sur 30 Sur 0 -- -- 62
2019-04-13 11:00:00 17.9 12 Sudoeste 22 Sur 0 -- -- 63
2019-04-13 10:00:00 17 13 Sur 20 Sudeste 0 -- -- 64
2019-04-13 09:00:00 15.4 8 Oeste 12 Norte 0 -- -- 66
2019-04-13 08:00:00 12.4 9 Norte 21 Noroeste 0 -- -- 73
2019-04-13 07:00:00 12.4 13 Norte 18 Norte 0 -- -- 73
2019-04-13 06:00:00 12.1 11 Nordeste 16 Norte 0 -- -- 74
2019-04-13 05:00:00 12.8 11 Norte 17 Norte 0 -- -- 72
2019-04-13 04:00:00 12.5 9 Norte 17 Norte 0 -- -- 74
2019-04-13 03:00:00 12.8 9 Norte 14 Norte 0 -- -- 71
2019-04-13 02:00:00 13.4 11 Norte 17 Noroeste 0 -- -- 68
2019-04-13 01:00:00 14.3 13 Noroeste 21 Noroeste 0 -- -- 60
2019-04-13 00:00:00 14.7 14 Norte 19 Noroeste 0 -- -- 56
2019-04-12 23:00:00 14.2 3 Norte 12 Norte 0 -- -- 52
2019-04-12 22:00:00 15 10 Norte 16 Noroeste 0 -- -- 47
2019-04-12 21:00:00 15.7 8 Norte 27 Noroeste 0 -- -- 48
2019-04-12 20:00:00 16.8 12 Noroeste 30 Noroeste 0 -- -- 47
2019-04-12 19:00:00 19.2 19 Noroeste 30 Noroeste 0 -- -- 39
2019-04-12 18:00:00 20.8 10 Noroeste 27 Noroeste 0 -- -- 32
2019-04-12 17:00:00 20.3 12 Sur 31 Sur 0 -- -- 35
2019-04-12 16:00:00 18.5 5 Sudoeste 32 Sur 0 -- -- 56
2019-04-12 15:00:00 18.2 18 Sur 38 Sur 0 -- -- 55
2019-04-12 14:00:00 20 20 Sur 36 Sur 0 -- -- 46
2019-04-12 13:00:00 19.6 22 Sur 43 Sur 0 -- -- 45
2019-04-12 12:00:00 19.2 18 Sur 45 Sur 0 -- -- 45
2019-04-12 11:00:00 18 10 Noroeste 19 Oeste 0 -- -- 55
2019-04-12 10:00:00 16.5 12 Oeste 21 Noroeste 0 -- -- 58
2019-04-12 09:00:00 14.8 9 Noroeste 22 Noroeste 0 -- -- 65
2019-04-12 08:00:00 12.9 16 Noroeste 24 Noroeste 0 -- -- 67
2019-04-12 07:00:00 12.7 10 Nordeste 33 Norte 0 -- -- 64
2019-04-12 06:00:00 13.4 9 Sur 45 Norte 0 -- -- 63
2019-04-12 05:00:00 13.7 27 Norte 53 Noroeste 0 -- -- 60
2019-04-12 04:00:00 12.2 10 Norte 20 Noroeste 0 -- -- 73
2019-04-12 03:00:00 12.5 9 Norte 17 Noroeste 0 -- -- 73
2019-04-12 02:00:00 13.5 17 Noroeste 42 Norte 0 -- -- 66
2019-04-12 01:00:00 13.8 12 Este 48 Nordeste 0 -- -- 65
2019-04-12 00:00:00 14 9 Nordeste 42 Norte 0 -- -- 66
2019-04-11 23:00:00 14.4 4 Nordeste 30 Nordeste 0 -- -- 61
2019-04-11 22:00:00 14.9 8 Oeste 66 Norte 0 -- -- 56
2019-04-11 21:00:00 15.5 31 Nordeste 62 Nordeste 0 -- -- 54
2019-04-11 20:00:00 16.2 11 Oeste 22 Noroeste 0 -- -- 58
2019-04-11 19:00:00 18.1 8 Sudoeste 23 Sur 0 -- -- 49
2019-04-11 18:00:00 19.7 8 Sudoeste 25 Sur 0 -- -- 44
2019-04-11 17:00:00 20.3 13 Sudoeste 23 Sudoeste 0 -- -- 45
2019-04-11 16:00:00 20.5 12 Oeste 31 Sur 0 -- -- 47
2019-04-11 15:00:00 20.5 14 Oeste 31 Sur 0 -- -- 49
2019-04-11 14:00:00 19.6 17 Sur 41 Sur 0 -- -- 50
2019-04-11 13:00:00 19.4 27 Sur 53 Sur 0 -- -- 50
2019-04-11 12:00:00 19 14 Sur 36 Sur 0 -- -- 50
2019-04-11 11:00:00 17.6 13 Noroeste 19 Noroeste 0 -- -- 53
2019-04-11 10:00:00 15.8 10 Oeste 22 Noroeste 0 -- -- 60
2019-04-11 09:00:00 14 12 Noroeste 25 Norte 0 -- -- 67
2019-04-11 08:00:00 11.9 15 Norte 26 Noroeste 0 -- -- 68
2019-04-11 07:00:00 11.9 11 Norte 25 Noroeste 0 -- -- 69
2019-04-11 06:00:00 11.9 12 Norte 20 Norte 0 -- -- 62
2019-04-11 05:00:00 11.8 13 Norte 19 Noroeste 0 -- -- 55
2019-04-11 04:00:00 11.5 11 Norte 22 Norte 0 -- -- 72
2019-04-11 03:00:00 11.7 13 Norte 20 Noroeste 0 -- -- 67
2019-04-11 02:00:00 12.1 12 Norte 19 Noroeste 0 -- -- 59
2019-04-11 01:00:00 12.4 11 Norte 17 Norte 0 -- -- 68
2019-04-11 00:00:00 12.6 10 Norte 18 Noroeste 0 -- -- 67
2019-04-10 23:00:00 13.2 13 Norte 21 Noroeste 0 -- -- 69
2019-04-10 22:00:00 13.7 13 Noroeste 19 Noroeste 0 -- -- 70
2019-04-10 21:00:00 14.5 13 Noroeste 21 Noroeste 0 -- -- 67
2019-04-10 20:00:00 16.2 13 Noroeste 21 Norte 0 -- -- 61
2019-04-10 19:00:00 18.4 11 Noroeste 44 Norte 0 -- -- 51
2019-04-10 18:00:00 19.4 19 Noroeste 40 Nordeste 0 -- -- 46
2019-04-10 17:00:00 18.9 19 Sur 40 Sur 0 -- -- 50
2019-04-10 16:00:00 19.8 15 Noroeste 32 Oeste 0 -- -- 49
2019-04-10 15:00:00 18.7 16 Sur 36 Sur 0 -- -- 52
2019-04-10 14:00:00 19.4 13 Sur 30 Sudoeste 0 -- -- 50
2019-04-10 13:00:00 18.5 14 Sur 38 Sur 0 -- -- 53
2019-04-10 12:00:00 18.5 17 Sur 41 Sudeste 0 -- -- 53
2019-04-10 11:00:00 17 17 Sur 42 Sur 0 -- -- 60
2019-04-10 10:00:00 16.4 7 Sudoeste 14 Sur 0 -- -- 63
2019-04-10 09:00:00 13.8 13 Noroeste 20 Noroeste 0 -- -- 68
2019-04-10 08:00:00 11.5 8 Norte 18 Norte 0 -- -- 69
2019-04-10 07:00:00 11.7 9 Norte 24 Noroeste 0 -- -- 75
2019-04-10 06:00:00 11.9 19 Norte 26 Norte 0 -- -- 72
2019-04-10 05:00:00 11.4 10 Norte 17 Norte 0 -- -- 78
2019-04-10 04:00:00 11.8 8 Norte 20 Norte 0 -- -- 77
2019-04-10 03:00:00 12.1 8 Norte 22 Norte 0 -- -- 77
2019-04-10 02:00:00 12.8 15 Noroeste 24 Noroeste 0 -- -- 75
2019-04-10 01:00:00 13.3 17 Noroeste 28 Noroeste 0 -- -- 73
2019-04-10 00:00:00 12.5 3 Este 16 Noroeste 0 -- -- 76
2019-04-09 23:00:00 13.5 18 Noroeste 24 Noroeste 0 -- -- 75
2019-04-09 22:00:00 13.8 4 Nordeste 21 Norte 0 -- -- 74
2019-04-09 21:00:00 13.7 8 Norte 23 Noroeste 0 -- -- 82
2019-04-09 20:00:00 14.5 5 Oeste 15 Sur 0 -- -- 81
2019-04-09 19:00:00 15.6 8 Sur 34 Sudeste 0 -- -- 78
2019-04-09 18:00:00 15.5 23 Sudeste 36 Sur 0 -- -- 80
2019-04-09 17:00:00 15.1 18 Sur 27 Sudeste 0 -- -- 83
2019-04-09 16:00:00 15.2 16 Sudeste 31 Sur 0 -- -- 84
2019-04-09 15:00:00 16.1 17 Sur 28 Sur 0 -- -- 80
2019-04-09 14:00:00 15.2 19 Sudeste 28 Sudeste 0 -- -- 87
2019-04-09 13:00:00 15.6 20 Sur 32 Sudeste 0 -- -- 86
2019-04-09 12:00:00 16.2 21 Sur 34 Sudeste 0 -- -- 84
2019-04-09 11:00:00 18.5 15 Sur 26 Sur 0 -- -- 64
2019-04-09 10:00:00 17.7 6 Sur 17 Sur 0 -- -- 59
2019-04-09 09:00:00 14.7 5 Sur 14 Nordeste 0 -- -- 70
2019-04-09 08:00:00 13 13 Nordeste 18 Este 0 -- -- 68
2019-04-09 07:00:00 11.9 6 Este 13 Nordeste 0 -- -- 71
2019-04-09 06:00:00 11 7 Nordeste 12 Nordeste 0 -- -- 72
2019-04-09 05:00:00 11.1 6 Norte 10 Nordeste 0 -- -- 70
2019-04-09 04:00:00 11.4 3 Nordeste 8 Nordeste 0 -- -- 66
2019-04-09 03:00:00 12 5 Norte 10 Norte 0 -- -- 59
2019-04-09 02:00:00 12.3 2 Oeste 19 Nordeste 0 -- -- 53
2019-04-09 01:00:00 12.1 17 Nordeste 20 Nordeste 0 -- -- 32
2019-04-09 00:00:00 11.2 13 Nordeste 17 Nordeste 0 -- -- 51
2019-04-08 23:00:00 11.8 14 Nordeste 18 Nordeste 0 -- -- 72
2019-04-08 22:00:00 12.4 14 Nordeste 23 Nordeste 0 -- -- 73
2019-04-08 21:00:00 13.2 13 Nordeste 17 Norte 0 -- -- 70
2019-04-08 20:00:00 15.3 11 Noroeste 19 Noroeste 0 -- -- 72
2019-04-08 19:00:00 16 13 Noroeste 20 Noroeste 0 -- -- 70
2019-04-08 18:00:00 16.7 12 Oeste 20 Sudoeste 0 -- -- 66
2019-04-08 17:00:00 16.7 8 Sudoeste 20 Sur 0 -- -- 68
2019-04-08 16:00:00 17 12 Sur 21 Sudoeste 0 -- -- 69
2019-04-08 15:00:00 17.2 10 Sur 18 Sudoeste 0 -- -- 66
2019-04-08 14:00:00 16.7 6 Sur 19 Oeste 0 -- -- 60
2019-04-08 13:00:00 16.1 2 Sur 11 Oeste 0 -- -- 66
2019-04-08 12:00:00 15.5 5 Oeste 17 Sur 0 -- -- 70
2019-04-08 11:00:00 17.3 8 Sur 17 Sur 0 -- -- 66
2019-04-08 10:00:00 15.9 6 Sur 15 Sur 0 -- -- 67
2019-04-08 09:00:00 14.1 5 Nordeste 15 Nordeste 0 -- -- 67
2019-04-08 08:00:00 13.1 11 Nordeste 16 Nordeste 0 -- -- 68
2019-04-08 07:00:00 12 8 Nordeste 15 Nordeste 0 -- -- 77
2019-04-08 06:00:00 12 15 Nordeste 21 Nordeste 0 -- -- 75
2019-04-08 05:00:00 11.6 13 Nordeste 17 Norte 0 -- -- 76
2019-04-08 04:00:00 11.7 14 Nordeste 18 Nordeste 0 -- -- 75
2019-04-08 03:00:00 13.4 11 Nordeste 15 Nordeste 0 -- -- 70
2019-04-08 02:00:00 13.1 6 Nordeste 12 Norte 0 -- -- 76
2019-04-08 01:00:00 12.5 10 Nordeste 12 Nordeste 0 -- -- 78
2019-04-08 00:00:00 13.3 5 Nordeste 13 Nordeste 0 -- -- 78
2019-04-07 23:00:00 13.1 9 Nordeste 13 Nordeste 0 -- -- 76
2019-04-07 22:00:00 14.4 4 Nordeste 9 Nordeste 0 -- -- 72
2019-04-07 21:00:00 14.9 4 Sudoeste 10 Sudeste 0 -- -- 77
2019-04-07 20:00:00 15.4 9 Sudeste 12 Sur 0 -- -- 73
2019-04-07 19:00:00 15.9 5 Sur 13 Sur 0 -- -- 69
2019-04-07 18:00:00 16.7 6 Sudoeste 15 Sudoeste 0 -- -- 66
2019-04-07 17:00:00 16.9 8 Sur 17 Sur 0 -- -- 64
2019-04-07 16:00:00 17.2 8 Sur 21 Sur 0 -- -- 64
2019-04-07 15:00:00 17.3 8 Sur 16 Sur 0 -- -- 62
2019-04-07 14:00:00 16.8 8 Sudoeste 18 Sur 0 -- -- 62
2019-04-07 13:00:00 17.2 10 Sur 25 Sur 0 -- -- 59
2019-04-07 12:00:00 18 12 Sudoeste 21 Sudoeste 0 -- -- 56
2019-04-07 11:00:00 17.2 11 Sudoeste 22 Sur 0 -- -- 56
2019-04-07 10:00:00 16.4 5 Oeste 11 Noroeste 0 -- -- 58
2019-04-07 09:00:00 14.1 5 Noroeste 12 Nordeste 0 -- -- 65
2019-04-07 08:00:00 10.4 12 Nordeste 15 Nordeste 0 -- -- 69
2019-04-07 07:00:00 10.7 11 Norte 16 Nordeste 0 -- -- 68
2019-04-07 06:00:00 11.1 8 Nordeste 14 Norte 0 -- -- 69
2019-04-07 05:00:00 10.8 10 Norte 13 Nordeste 0 -- -- 71
2019-04-07 04:00:00 11.2 11 Nordeste 17 Nordeste 0 -- -- 64
2019-04-07 03:00:00 11.2 15 Nordeste 17 Nordeste 0 -- -- 68
2019-04-07 02:00:00 12 9 Nordeste 16 Nordeste 0 -- -- 61
2019-04-07 01:00:00 12.4 10 Nordeste 14 Nordeste 0 -- -- 64
2019-04-07 00:00:00 12.3 11 Nordeste 14 Nordeste 0 -- -- 71
2019-04-06 23:00:00 12.2 10 Nordeste 13 Nordeste 0 -- -- 80
2019-04-06 22:00:00 13.1 10 Nordeste 15 Nordeste 0 -- -- 77
2019-04-06 21:00:00 14.7 4 Oeste 11 Oeste 0 -- -- 71
2019-04-06 20:00:00 15.4 6 Sudoeste 12 Oeste 0 -- -- 68
2019-04-06 19:00:00 16 9 Oeste 17 Oeste 0 -- -- 66
2019-04-06 18:00:00 16.8 7 Oeste 17 Sudoeste 0 -- -- 63
2019-04-06 17:00:00 16.7 9 Sur 23 Sudeste 0 -- -- 63
2019-04-06 16:00:00 16.8 11 Sudeste 24 Sur 0 -- -- 64
2019-04-06 15:00:00 17.3 12 Sur 27 Sudoeste 0 -- -- 60
2019-04-06 14:00:00 17.7 14 Oeste 26 Oeste 0 -- -- 57
2019-04-06 13:00:00 17.6 13 Oeste 23 Oeste 0 -- -- 55
2019-04-06 12:00:00 18.6 6 Oeste 33 Noroeste 0 -- -- 52
2019-04-06 11:00:00 17.7 7 Oeste 32 Norte 0 -- -- 57
2019-04-06 10:00:00 17.1 6 Oeste 23 Oeste 0 -- -- 60
2019-04-06 09:00:00 15.3 15 Noroeste 43 Noroeste 0 -- -- 48
2019-04-06 08:00:00 14.3 18 Noroeste 42 Norte 0 -- -- 49
2019-04-06 07:00:00 14 14 Norte 49 Nordeste 0 -- -- 51
2019-04-06 06:00:00 13.7 21 Norte 41 Nordeste 0 -- -- 57
2019-04-06 05:00:00 13.3 18 Norte 42 Norte 0 -- -- 60
2019-04-06 04:00:00 13.3 16 Nordeste 38 Noroeste 0 -- -- 64
2019-04-06 03:00:00 13.4 16 Norte 46 Norte 0 -- -- 63
2019-04-06 02:00:00 13.1 15 Norte 37 Norte 0 -- -- 68
2019-04-06 01:00:00 14.2 4 Oeste 41 Nordeste 0 -- -- 55
2019-04-06 00:00:00 14.2 12 Norte 45 Nordeste 0 -- -- 58
2019-04-05 23:00:00 14 17 Nordeste 41 Norte 0 -- -- 64
2019-04-05 22:00:00 14 12 Noroeste 38 Norte 0 -- -- 67
2019-04-05 21:00:00 14.4 12 Norte 44 Norte 0 -- -- 58
2019-04-05 20:00:00 14.9 14 Noroeste 41 Norte 0 -- -- 68
2019-04-05 19:00:00 15.7 8 Sudoeste 28 Nordeste 0 -- -- 66
2019-04-05 18:00:00 16.3 10 Sudoeste 40 Este 0 -- -- 69
2019-04-05 17:00:00 17.3 10 Sudeste 31 Nordeste 0 -- -- 59
2019-04-05 16:00:00 17.3 14 Sur 29 Sudoeste 0 -- -- 66
2019-04-05 15:00:00 17.3 10 Sudoeste 33 Sur 0 -- -- 65
2019-04-05 14:00:00 18.2 15 Sudeste 23 Este 0 -- -- 56
2019-04-05 13:00:00 18.1 12 Sudoeste 22 Oeste 0 -- -- 59
2019-04-05 12:00:00 18.3 13 Sudoeste 22 Noroeste 0 -- -- 61
2019-04-05 11:00:00 18.4 8 Sudoeste 28 Noroeste 0 -- -- 54
2019-04-05 10:00:00 16.3 15 Oeste 30 Oeste 0 -- -- 63
2019-04-05 09:00:00 13.8 18 Nordeste 29 Nordeste 0 -- -- 58
2019-04-05 08:00:00 13.4 21 Nordeste 39 Nordeste 0 -- -- 61
2019-04-05 07:00:00 12.6 11 Nordeste 20 Sudoeste 0 -- -- 63
2019-04-05 06:00:00 13.8 13 Noroeste 33 Oeste 0 -- -- 66
2019-04-05 05:00:00 13.6 14 Norte 38 Noroeste 0 -- -- 54
2019-04-05 04:00:00 12.9 14 Nordeste 32 Norte 0 -- -- 63
2019-04-05 03:00:00 13.7 22 Norte 37 Nordeste 0 -- -- 61
2019-04-05 02:00:00 13.5 22 Nordeste 39 Norte 0 -- -- 63
2019-04-05 01:00:00 12.7 2 Nordeste 18 Noroeste 0 -- -- 81
2019-04-05 00:00:00 13.6 3 Nordeste 29 Norte 0 -- -- 80
2019-04-04 23:00:00 14.5 23 Nordeste 41 Nordeste 0 -- -- 64
2019-04-04 22:00:00 14.2 6 Este 21 Nordeste 0 -- -- 77
2019-04-04 21:00:00 14.9 4 Nordeste 12 Oeste 0 -- -- 73
2019-04-04 20:00:00 15.5 9 Noroeste 16 Noroeste 0 -- -- 71
2019-04-04 19:00:00 16.4 10 Oeste 30 Este 0 -- -- 69
2019-04-04 18:00:00 16.7 11 Sudoeste 26 Sudoeste 0 -- -- 68
2019-04-04 17:00:00 18.6 12 Sur 31 Noroeste 0 -- -- 59
2019-04-04 16:00:00 17.9 10 Sur 31 Sur 0 -- -- 59
2019-04-04 15:00:00 17.6 9 Oeste 50 Nordeste 0 -- -- 62
2019-04-04 14:00:00 17.4 28 Nordeste 48 Nordeste 0 -- -- 53
2019-04-04 13:00:00 16 13 Este 42 Nordeste 0 -- -- 63
2019-04-04 12:00:00 16.7 14 Sudoeste 26 Sudoeste 0 -- -- 58
2019-04-04 11:00:00 15.3 5 Oeste 10 Sudoeste 0 -- -- 72
2019-04-04 10:00:00 14.3 5 Sur 10 Sur 0 -- -- 76
2019-04-04 09:00:00 13.3 5 Norte 22 Norte 0 -- -- 76
2019-04-04 08:00:00 12.7 13 Nordeste 18 Nordeste 0 -- -- 70
2019-04-04 07:00:00 12.1 9 Nordeste 17 Nordeste 0 -- -- 70
2019-04-04 06:00:00 11.2 11 Nordeste 13 Nordeste 0 -- -- 77
2019-04-04 05:00:00 11.5 5 Nordeste 15 Nordeste 0 -- -- 79
2019-04-04 04:00:00 12.6 7 Norte 15 Nordeste 0 -- -- 76
2019-04-04 03:00:00 12.5 11 Nordeste 23 Nordeste 0 -- -- 71
2019-04-04 02:00:00 12.1 17 Nordeste 24 Nordeste 0 -- -- 69
2019-04-04 01:00:00 11.9 17 Nordeste 20 Nordeste 0 -- -- 70
2019-04-04 00:00:00 12.7 12 Nordeste 20 Nordeste 0 -- -- 68
2019-04-03 23:00:00 13.1 5 Nordeste 28 Norte 0 -- -- 69
2019-04-03 22:00:00 13.7 13 Norte 27 Norte 0 -- -- 66
2019-04-03 21:00:00 13.3 10 Norte 26 Nordeste 0.2 -- -- 70
2019-04-03 20:00:00 15.1 21 Nordeste 48 Norte 0 -- -- 59
2019-04-03 19:00:00 15.5 23 Norte 45 Norte 0 -- -- 57
2019-04-03 18:00:00 17 26 Norte 45 Nordeste 0 -- -- 53
2019-04-03 17:00:00 17.3 32 Nordeste 56 Nordeste 0 -- -- 54
2019-04-03 16:00:00 16.4 16 Nordeste 35 Norte 0 -- -- 56
2019-04-03 15:00:00 16.9 8 Oeste 16 Sudoeste 0 -- -- 70
2019-04-03 14:00:00 14.6 8 Oeste 24 Nordeste 2 -- -- 81
2019-04-03 13:00:00 14.1 18 Este 30 Sudeste 0.2 -- -- 72
2019-04-03 12:00:00 16.6 11 Sur 23 Sur 0 -- -- 70
2019-04-03 11:00:00 17 12 Sur 19 Sur 0 -- -- 72
2019-04-03 10:00:00 16.5 7 Sur 13 Sur 0 -- -- 73
2019-04-03 09:00:00 14.2 2 Nordeste 21 Nordeste 0 -- -- 66
2019-04-03 08:00:00 12.3 17 Nordeste 23 Nordeste 0 -- -- 64
2019-04-03 07:00:00 12.3 15 Nordeste 21 Nordeste 0 -- -- 69
2019-04-03 06:00:00 12.3 12 Nordeste 19 Nordeste 0 -- -- 74
2019-04-03 05:00:00 12.4 14 Nordeste 18 Nordeste 0 -- -- 78
2019-04-03 04:00:00 11.7 12 Nordeste 14 Nordeste 0 -- -- 87
2019-04-03 03:00:00 12.5 4 Nordeste 8 Nordeste 0 -- -- 85
2019-04-03 02:00:00 13.2 4 Este 7 Nordeste 0 -- -- 89
2019-04-03 01:00:00 13.3 4 Nordeste 6 Nordeste 0 -- -- 88
2019-04-03 00:00:00 12.8 4 Norte 9 Nordeste 0 -- -- 90
2019-04-02 23:00:00 13.2 3 Nordeste 6 Norte 0 -- -- 92
2019-04-02 22:00:00 13.7 4 Nordeste 5 Nordeste 0 -- -- 90
2019-04-02 21:00:00 14.2 0 Calma 5 Sudoeste 0 -- -- 87
2019-04-02 20:00:00 14.4 0 Calma 7 Sudoeste 0 -- -- 85
2019-04-02 19:00:00 14.9 6 Sur 10 Sudoeste 0 -- -- 86
2019-04-02 18:00:00 15.2 3 Sudoeste 9 Sur 0 -- -- 83
2019-04-02 17:00:00 15.3 3 Sudeste 11 Sur 0 -- -- 81
2019-04-02 16:00:00 14.6 2 Este 11 Nordeste 0 -- -- 86
2019-04-02 15:00:00 13.5 6 Norte 17 Oeste 0.4 -- -- 92
2019-04-02 14:00:00 14.5 13 Sudoeste 20 Sudoeste 0 -- -- 85
2019-04-02 13:00:00 15.1 4 Oeste 14 Nordeste 0 -- -- 82
2019-04-02 12:00:00 12.7 12 Nordeste 19 Nordeste 0.2 -- -- 90
2019-04-02 11:00:00 13.4 4 Norte 6 Norte 0.4 -- -- 93
2019-04-02 10:00:00 13.4 3 Sudeste 6 Sur 0 -- -- 95
2019-04-02 09:00:00 13.2 0 Calma 4 Sudeste 0.2 -- -- 96
2019-04-02 08:00:00 12.8 3 Sudeste 6 Sur 0.6 -- -- 97
2019-04-02 07:00:00 12.7 5 Sudeste 7 Sudeste 6.4 -- -- 97
2019-04-02 06:00:00 12.9 3 Este 5 Sudeste 0 -- -- 96
2019-04-02 05:00:00 12.7 0 Calma 4 Este 0 -- -- 96
2019-04-02 04:00:00 12.8 0 Calma 3 Noroeste 3.2 -- -- 97
2019-04-02 03:00:00 12.7 0 Calma 12 Sur 0 -- -- 98
2019-04-02 02:00:00 13 9 Sur 16 Sur 0 -- -- 97
2019-04-02 01:00:00 13.1 3 Norte 6 Norte 0 -- -- 94
2019-04-02 00:00:00 12.9 3 Nordeste 8 Norte 0.2 -- -- 94
2019-04-01 23:00:00 12.8 0 Calma 8 Este 0.6 -- -- 94
2019-04-01 22:00:00 13.1 0 Calma 8 Nordeste 0 -- -- 93
2019-04-01 21:00:00 13.1 3 Noroeste 10 Nordeste 0 -- -- 92
2019-04-01 20:00:00 12.9 8 Nordeste 12 Nordeste 0.4 -- -- 91
2019-04-01 19:00:00 13.2 4 Este 10 Este 1 -- -- 92
2019-04-01 18:00:00 13.4 2 Sudeste 13 Nordeste 0.6 -- -- 92
2019-04-01 17:00:00 13.5 5 Nordeste 13 Nordeste 0.2 -- -- 88
2019-04-01 16:00:00 13.1 6 Este 10 Este 2 -- -- 92
2019-04-01 15:00:00 13.5 4 Sudoeste 12 Sur 2.6 -- -- 94
2019-04-01 14:00:00 14.3 6 Sur 14 Sudeste 0 -- -- 86
2019-04-01 13:00:00 14.5 6 Sur 17 Sur 0 -- -- 82
2019-04-01 12:00:00 15.8 10 Sur 19 Sudoeste 0 -- -- 76
2019-04-01 11:00:00 15.9 6 Sudoeste 12 Sudoeste 0 -- -- 72
2019-04-01 10:00:00 15.1 4 Sudoeste 6 Sur 0 -- -- 76
2019-04-01 09:00:00 13 2 Nordeste 11 Nordeste 0 -- -- 80
2019-04-01 08:00:00 11.4 8 Nordeste 13 Nordeste 0 -- -- 78
2019-04-01 07:00:00 11.7 7 Nordeste 13 Nordeste 0 -- -- 75
2019-04-01 06:00:00 11.9 8 Nordeste 17 Nordeste 0 -- -- 75
2019-04-01 05:00:00 11.8 9 Nordeste 13 Nordeste 0 -- -- 80
2019-04-01 04:00:00 12.1 10 Nordeste 14 Nordeste 0 -- -- 77
2019-04-01 03:00:00 11.6 5 Nordeste 9 Nordeste 0 -- -- 82
2019-04-01 02:00:00 12.2 6 Nordeste 10 Nordeste 0 -- -- 87
2019-04-01 01:00:00 13.6 4 Nordeste 8 Nordeste 0 -- -- 83
2019-04-01 00:00:00 13.8 4 Nordeste 9 Norte 0 -- -- 80
2019-03-31 23:00:00 14 6 Noroeste 10 Noroeste 0 -- -- 84
2019-03-31 22:00:00 13.9 0 Calma 9 Norte 0 -- -- 82
2019-03-31 21:00:00 14.2 0 Calma 4 Sudoeste 0 -- -- 80
2019-03-31 20:00:00 14.8 2 Sur 8 Sur 0 -- -- 77
2019-03-31 19:00:00 15.4 5 Sur 10 Sudoeste 0 -- -- 74
2019-03-31 18:00:00 16 4 Sur 14 Sur 0 -- -- 68
2019-03-31 17:00:00 16.5 4 Sur 13 Sur 0 -- -- 66
2019-03-31 16:00:00 16.6 10 Sur 16 Sur 0 -- -- 59
2019-03-31 15:00:00 16.7 6 Sur 17 Sur 0 -- -- 63
2019-03-31 14:00:00 17.4 9 Sur 22 Sudoeste 0 -- -- 60
2019-03-31 13:00:00 18.3 12 Sudoeste 21 Sur 0 -- -- 59
2019-03-31 12:00:00 17.6 14 Sur 23 Sudoeste 0 -- -- 65
2019-03-31 11:00:00 17.2 9 Oeste 18 Sur 0 -- -- 66
2019-03-31 10:00:00 16 5 Sur 9 Sur 0 -- -- 64
2019-03-31 09:00:00 14.4 5 Sudeste 14 Nordeste 0 -- -- 70
2019-03-31 08:00:00 9.6 6 Nordeste 13 Nordeste 0 -- -- 79
2019-03-31 07:00:00 9.5 7 Nordeste 14 Nordeste 0 -- -- 78
2019-03-31 06:00:00 9.7 11 Nordeste 15 Nordeste 0 -- -- 75
2019-03-31 05:00:00 9.8 9 Nordeste 17 Nordeste 0 -- -- 80
2019-03-31 04:00:00 9.8 13 Nordeste 16 Nordeste 0 -- -- 83
2019-03-31 00:00:00 10.8 12 Nordeste 17 Nordeste 0 -- -- 75
2019-03-30 23:00:00 10.4 11 Nordeste 14 Nordeste 0 -- -- 82
2019-03-30 22:00:00 10.8 12 Nordeste 14 Nordeste 0 -- -- 81
2019-03-30 21:00:00 11.1 7 Nordeste 13 Nordeste 0 -- -- 82
2019-03-30 20:00:00 11.9 9 Nordeste 11 Nordeste 0 -- -- 86
2019-03-30 19:00:00 14 0 Calma 10 Sur 0 -- -- 76
2019-03-30 18:00:00 15.2 4 Sur 12 Sudoeste 0 -- -- 70
2019-03-30 17:00:00 15.6 4 Oeste 12 Sudoeste 0 -- -- 69
2019-03-30 16:00:00 14.5 7 Sur 21 Sudoeste 0 -- -- 72
2019-03-30 15:00:00 15.4 12 Sudoeste 24 Oeste 0 -- -- 69
2019-03-30 14:00:00 14.7 9 Oeste 22 Oeste 0 -- -- 77
2019-03-30 13:00:00 15.5 10 Sudoeste 23 Sudoeste 0 -- -- 73
2019-03-30 12:00:00 15.4 14 Sur 22 Sudoeste 0 -- -- 77
2019-03-30 11:00:00 17.1 10 Sur 19 Sur 0 -- -- 73
2019-03-30 10:00:00 16.5 9 Sudoeste 15 Oeste 0 -- -- 71
2019-03-30 09:00:00 15.4 5 Sur 13 Sur 0 -- -- 74
2019-03-30 08:00:00 12.6 12 Nordeste 26 Nordeste 0.2 -- -- 75
2019-03-30 07:00:00 10.6 18 Nordeste 23 Nordeste 0.8 -- -- 82
2019-03-30 06:00:00 10.8 3 Nordeste 12 Norte 0 -- -- 80
2019-03-30 05:00:00 10.3 7 Nordeste 15 Nordeste 0 -- -- 78
2019-03-30 04:00:00 11 8 Este 17 Nordeste 0 -- -- 78
2019-03-30 03:00:00 10.7 10 Nordeste 17 Nordeste 0 -- -- 74
2019-03-30 02:00:00 10.1 12 Nordeste 15 Norte 0 -- -- 82
2019-03-30 01:00:00 11 8 Norte 16 Norte 0 -- -- 76
2019-03-30 00:00:00 11.3 14 Nordeste 18 Nordeste 0 -- -- 78
2019-03-29 23:00:00 11.4 13 Norte 20 Norte 0 -- -- 78
2019-03-29 22:00:00 11.9 17 Nordeste 19 Nordeste 0 -- -- 78
2019-03-29 21:00:00 12.3 15 Norte 18 Nordeste 0 -- -- 81
2019-03-29 20:00:00 12.8 4 Norte 15 Nordeste 0 -- -- 84
2019-03-29 19:00:00 13.8 4 Norte 9 Nordeste 0 -- -- 86
2019-03-29 18:00:00 13.9 7 Nordeste 9 Nordeste 0.6 -- -- 87
2019-03-29 17:00:00 14.4 3 Sur 9 Sudoeste 0 -- -- 86
2019-03-29 16:00:00 14.8 5 Sur 13 Sur 0 -- -- 81
2019-03-29 15:00:00 14.7 5 Este 14 Este 1.4 -- -- 84
2019-03-29 14:00:00 13.9 5 Sur 12 Sur 0.8 -- -- 93
2019-03-29 13:00:00 14.7 6 Sur 10 Este 2.2 -- -- 86
2019-03-29 12:00:00 14.2 4 Sur 13 Sur 1.2 -- -- 92
2019-03-29 11:00:00 15.2 6 Sur 15 Sur 0 -- -- 86
2019-03-29 10:00:00 14.9 3 Sur 12 Sur 0 -- -- 82
2019-03-29 09:00:00 15.2 7 Sur 12 Sur 0 -- -- 84
2019-03-29 08:00:00 11.6 6 Nordeste 11 Nordeste 0 -- -- 89
2019-03-29 07:00:00 10.5 9 Norte 12 Nordeste 0 -- -- 89
2019-03-29 06:00:00 11 12 Nordeste 15 Nordeste 0 -- -- 87
2019-03-29 05:00:00 11.2 12 Nordeste 17 Nordeste 0 -- -- 86
2019-03-29 04:00:00 10.9 10 Nordeste 13 Nordeste 0 -- -- 90
2019-03-29 03:00:00 11.9 5 Nordeste 9 Nordeste 0 -- -- 91
2019-03-29 02:00:00 11.7 5 Nordeste 9 Nordeste 0 -- -- 95
2019-03-29 01:00:00 12.6 5 Nordeste 9 Nordeste 0 -- -- 94
2019-03-29 00:00:00 13.3 3 Noroeste 6 Sudoeste 7.4 -- -- 95
2019-03-28 23:00:00 13.3 4 Sudeste 14 Sur 5 -- -- 95
2019-03-28 22:00:00 13.4 7 Sudeste 12 Sudeste 1 -- -- 93
2019-03-28 21:00:00 13.8 9 Sudeste 15 Sudeste 0 -- -- 90
2019-03-28 20:00:00 14 10 Sudeste 17 Sur 0 -- -- 89
2019-03-28 19:00:00 14.2 6 Sur 14 Sur 0 -- -- 85
2019-03-28 18:00:00 14.6 8 Sur 14 Sur 0 -- -- 84
2019-03-28 17:00:00 14.8 8 Sur 14 Sur 0 -- -- 82
2019-03-28 16:00:00 14.8 5 Sur 12 Sur 0 -- -- 81
2019-03-28 15:00:00 14.6 4 Sur 11 Sur 0 -- -- 84
2019-03-28 14:00:00 14.8 7 Sur 15 Sur 0 -- -- 81
2019-03-28 13:00:00 15.2 9 Sur 22 Sudeste 0 -- -- 78
2019-03-28 12:00:00 16.4 11 Sur 23 Sur 0 -- -- 73
2019-03-28 11:00:00 17.3 13 Sur 21 Sur 0 -- -- 70
2019-03-28 10:00:00 15.4 4 Sur 13 Sudoeste 0 -- -- 76
2019-03-28 09:00:00 14.6 4 Oeste 8 Oeste 0 -- -- 76
2019-03-28 08:00:00 12.9 3 Norte 13 Norte 0 -- -- 83
2019-03-28 07:00:00 10.5 13 Nordeste 15 Nordeste 0 -- -- 77
2019-03-28 06:00:00 10.8 9 Norte 15 Nordeste 0 -- -- 80
2019-03-28 05:00:00 11.2 11 Norte 18 Norte 0 -- -- 76
2019-03-28 04:00:00 11.9 10 Norte 14 Norte 0 -- -- 76
2019-03-28 03:00:00 12.5 12 Norte 14 Norte 0 -- -- 81
2019-03-28 02:00:00 12.4 9 Norte 13 Nordeste 0 -- -- 78
2019-03-28 01:00:00 12.9 5 Norte 15 Nordeste 0 -- -- 77
2019-03-28 00:00:00 13.5 11 Nordeste 14 Nordeste 0 -- -- 76
2019-03-27 23:00:00 13.1 9 Nordeste 13 Nordeste 0 -- -- 81
2019-03-27 22:00:00 13.3 8 Nordeste 12 Nordeste 0 -- -- 81
2019-03-27 21:00:00 14.6 8 Norte 10 Norte 0 -- -- 84
2019-03-27 20:00:00 14.9 4 Oeste 9 Sudoeste 0 -- -- 82
2019-03-27 19:00:00 15.3 6 Sudoeste 13 Sur 0 -- -- 81
2019-03-27 18:00:00 16 6 Sudoeste 10 Sudoeste 0 -- -- 79
2019-03-27 17:00:00 16.1 7 Sur 11 Sudeste 0 -- -- 80
2019-03-27 16:00:00 15.7 4 Oeste 15 Sudeste 0 -- -- 82
2019-03-27 15:00:00 16.1 7 Noroeste 20 Oeste 0 -- -- 78
2019-03-27 14:00:00 15.9 6 Sudoeste 23 Sudoeste 0 -- -- 80
2019-03-27 13:00:00 16.4 12 Sudoeste 20 Oeste 0 -- -- 78
2019-03-27 12:00:00 16.6 12 Sudoeste 24 Sudoeste 0 -- -- 76
2019-03-27 11:00:00 16.6 6 Sudoeste 19 Sudeste 0 -- -- 73
2019-03-27 10:00:00 16.6 9 Sur 15 Sudoeste 0 -- -- 74
2019-03-27 09:00:00 16.7 8 Sur 13 Sur 0 -- -- 72
2019-03-27 08:00:00 13.7 2 Este 17 Nordeste 0 -- -- 81
2019-03-27 07:00:00 11.4 8 Nordeste 15 Nordeste 0 -- -- 84
2019-03-27 06:00:00 12.2 6 Nordeste 16 Nordeste 0 -- -- 83
2019-03-27 05:00:00 11.5 8 Norte 15 Nordeste 0 -- -- 84
2019-03-27 04:00:00 12.4 12 Nordeste 15 Nordeste 0 -- -- 81
2019-03-27 03:00:00 12.1 5 Nordeste 15 Este 0 -- -- 87
2019-03-27 02:00:00 12.5 8 Nordeste 14 Nordeste 0 -- -- 82
2019-03-27 01:00:00 12.3 9 Nordeste 18 Nordeste 0 -- -- 83
2019-03-27 00:00:00 12.4 7 Nordeste 15 Norte 0 -- -- 86
2019-03-26 23:00:00 12.4 8 Norte 14 Norte 0 -- -- 88
2019-03-26 22:00:00 12.6 9 Norte 12 Norte 0 -- -- 89
2019-03-26 21:00:00 13.5 6 Norte 8 Noroeste 0 -- -- 87
2019-03-26 20:00:00 13.4 0 Calma 4 Sur 0 -- -- 88
2019-03-26 19:00:00 14.6 2 Sudoeste 6 Sur 0 -- -- 83
2019-03-26 18:00:00 15.3 5 Sudoeste 8 Sudoeste 0 -- -- 81
2019-03-26 17:00:00 15.5 5 Sudoeste 14 Sur 0 -- -- 80
2019-03-26 16:00:00 15.6 3 Sudoeste 14 Sur 0 -- -- 82
2019-03-26 15:00:00 15.6 8 Sur 14 Sur 0 -- -- 82
2019-03-26 14:00:00 15.6 4 Sur 15 Sur 0 -- -- 81
2019-03-26 13:00:00 15.3 10 Sur 15 Sur 0 -- -- 82
2019-03-26 12:00:00 15.1 7 Sur 19 Sur 0 -- -- 79
2019-03-26 11:00:00 16.8 12 Sudoeste 22 Sur 0 -- -- 71
2019-03-26 10:00:00 16.6 8 Sudoeste 15 Oeste 0 -- -- 72
2019-03-26 09:00:00 15.4 6 Oeste 12 Sudoeste 0 -- -- 74
2019-03-26 08:00:00 13.4 3 Noroeste 11 Nordeste 0 -- -- 79
2019-03-26 07:00:00 10.4 10 Norte 12 Norte 0 -- -- 87
2019-03-26 06:00:00 9.6 5 Nordeste 13 Nordeste 0 -- -- 90
2019-03-26 05:00:00 10.2 9 Nordeste 14 Nordeste 0 -- -- 84
2019-03-26 04:00:00 9.8 10 Nordeste 13 Nordeste 0 -- -- 87
2019-03-26 03:00:00 10.2 6 Norte 15 Nordeste 0 -- -- 85
2019-03-26 02:00:00 10.7 13 Nordeste 16 Nordeste 0 -- -- 84
2019-03-26 01:00:00 10.4 13 Nordeste 16 Norte 0 -- -- 88
2019-03-26 00:00:00 10.8 10 Nordeste 12 Nordeste 0 -- -- 89
2019-03-25 23:00:00 10.5 6 Nordeste 10 Nordeste 0 -- -- 92
2019-03-25 22:00:00 11.4 4 Este 10 Nordeste 0 -- -- 93
2019-03-25 21:00:00 12.1 5 Este 13 Nordeste 0 -- -- 87
2019-03-25 20:00:00 12.8 0 Calma 8 Sur 0 -- -- 92
2019-03-25 19:00:00 13.1 5 Este 10 Norte 0.4 -- -- 91
2019-03-25 18:00:00 13.5 3 Oeste 9 Norte 0.4 -- -- 88
2019-03-25 17:00:00 13.6 0 Calma 15 Sur 0 -- -- 84
2019-03-25 16:00:00 14.4 7 Sur 15 Sur 0 -- -- 84
2019-03-25 15:00:00 15.1 6 Sur 12 Sur 0 -- -- 79
2019-03-25 14:00:00 13.3 5 Sur 14 Sudoeste 0.4 -- -- 94
2019-03-25 13:00:00 13.7 5 Sur 13 Sur 0.2 -- -- 87
2019-03-25 12:00:00 12.6 2 Sudeste 13 Sur 0.8 -- -- 92
2019-03-25 11:00:00 12.5 8 Este 13 Este 1 -- -- 89
2019-03-25 10:00:00 13.1 3 Oeste 12 Norte 1 -- -- 89
2019-03-25 09:00:00 13 2 Sudeste 6 Este 0 -- -- 85
2019-03-25 08:00:00 12.8 3 Sudeste 7 Norte 0 -- -- 84
2019-03-25 07:00:00 12.3 7 Nordeste 10 Nordeste 0 -- -- 85
2019-03-25 06:00:00 12.3 5 Norte 11 Norte 0 -- -- 83
2019-03-25 05:00:00 11.9 3 Nordeste 10 Nordeste 0 -- -- 90
2019-03-25 04:00:00 11.5 5 Nordeste 10 Nordeste 0 -- -- 90
2019-03-25 03:00:00 11.7 9 Nordeste 10 Nordeste 0 -- -- 90
2019-03-25 02:00:00 11.6 5 Nordeste 8 Nordeste 0 -- -- 91
2019-03-25 01:00:00 12.6 4 Nordeste 8 Nordeste 0 -- -- 91
2019-03-25 00:00:00 12.8 0 Calma 6 Nordeste 0 -- -- 89